sensor_id;sensor_type;location;lat;lon;timestamp;P1;durP1;ratioP1;P2;durP2;ratioP2
71665;SDS011;59503;53.486;10.196;2024-02-21T00:00:54;45.83;;;12.82;;
71665;SDS011;59503;53.486;10.196;2024-02-21T00:03:20;41.63;;;11.77;;
71665;SDS011;59503;53.486;10.196;2024-02-21T00:05:46;39.27;;;12.80;;
71665;SDS011;59503;53.486;10.196;2024-02-21T00:08:11;41.00;;;12.00;;
71665;SDS011;59503;53.486;10.196;2024-02-21T00:10:37;36.97;;;13.00;;
71665;SDS011;59503;53.486;10.196;2024-02-21T00:13:03;39.10;;;11.77;;
71665;SDS011;59503;53.486;10.196;2024-02-21T00:15:28;45.13;;;13.13;;
71665;SDS011;59503;53.486;10.196;2024-02-21T00:17:54;41.47;;;13.45;;
71665;SDS011;59503;53.486;10.196;2024-02-21T00:20:19;40.63;;;12.43;;
71665;SDS011;59503;53.486;10.196;2024-02-21T00:22:45;36.13;;;12.90;;
71665;SDS011;59503;53.486;10.196;2024-02-21T00:25:11;35.30;;;12.35;;
71665;SDS011;59503;53.486;10.196;2024-02-21T00:27:37;36.30;;;12.75;;
71665;SDS011;59503;53.486;10.196;2024-02-21T00:30:04;38.85;;;12.85;;
71665;SDS011;59503;53.486;10.196;2024-02-21T00:32:30;36.97;;;13.00;;
71665;SDS011;59503;53.486;10.196;2024-02-21T00:34:55;41.42;;;12.60;;
71665;SDS011;59503;53.486;10.196;2024-02-21T00:37:21;43.50;;;13.20;;
71665;SDS011;59503;53.486;10.196;2024-02-21T00:39:46;42.47;;;12.97;;
71665;SDS011;59503;53.486;10.196;2024-02-21T00:42:12;37.00;;;12.98;;
71665;SDS011;59503;53.486;10.196;2024-02-21T00:44:37;43.83;;;13.03;;
71665;SDS011;59503;53.486;10.196;2024-02-21T00:47:03;38.88;;;12.95;;
71665;SDS011;59503;53.486;10.196;2024-02-21T00:49:29;40.50;;;13.23;;
71665;SDS011;59503;53.486;10.196;2024-02-21T00:51:55;47.80;;;12.87;;
71665;SDS011;59503;53.486;10.196;2024-02-21T00:54:20;35.90;;;12.90;;
71665;SDS011;59503;53.486;10.196;2024-02-21T00:56:47;39.17;;;13.93;;
71665;SDS011;59503;53.486;10.196;2024-02-21T00:59:12;40.37;;;13.47;;
71665;SDS011;59503;53.486;10.196;2024-02-21T01:01:38;40.60;;;13.18;;
71665;SDS011;59503;53.486;10.196;2024-02-21T01:04:03;38.70;;;13.00;;
71665;SDS011;59503;53.486;10.196;2024-02-21T01:06:29;41.42;;;13.63;;
71665;SDS011;59503;53.486;10.196;2024-02-21T01:08:54;35.23;;;13.10;;
71665;SDS011;59503;53.486;10.196;2024-02-21T01:11:20;39.63;;;13.53;;
71665;SDS011;59503;53.486;10.196;2024-02-21T01:13:45;42.20;;;14.57;;
71665;SDS011;59503;53.486;10.196;2024-02-21T01:16:11;44.70;;;15.67;;
71665;SDS011;59503;53.486;10.196;2024-02-21T01:18:37;41.70;;;14.77;;
71665;SDS011;59503;53.486;10.196;2024-02-21T01:21:03;41.93;;;15.07;;
71665;SDS011;59503;53.486;10.196;2024-02-21T01:23:32;45.67;;;15.85;;
71665;SDS011;59503;53.486;10.196;2024-02-21T01:26:00;41.05;;;13.88;;
71665;SDS011;59503;53.486;10.196;2024-02-21T01:28:26;44.70;;;14.30;;
71665;SDS011;59503;53.486;10.196;2024-02-21T01:30:51;38.63;;;14.77;;
71665;SDS011;59503;53.486;10.196;2024-02-21T01:33:17;46.20;;;15.17;;
71665;SDS011;59503;53.486;10.196;2024-02-21T01:35:42;45.33;;;14.93;;
71665;SDS011;59503;53.486;10.196;2024-02-21T01:38:08;49.40;;;15.18;;
71665;SDS011;59503;53.486;10.196;2024-02-21T01:40:34;49.07;;;15.87;;
71665;SDS011;59503;53.486;10.196;2024-02-21T01:42:59;45.50;;;14.52;;
71665;SDS011;59503;53.486;10.196;2024-02-21T01:45:25;43.23;;;14.57;;
71665;SDS011;59503;53.486;10.196;2024-02-21T01:47:50;35.90;;;13.17;;
71665;SDS011;59503;53.486;10.196;2024-02-21T01:50:16;39.53;;;13.63;;
71665;SDS011;59503;53.486;10.196;2024-02-21T01:52:42;42.70;;;14.32;;
71665;SDS011;59503;53.486;10.196;2024-02-21T01:55:11;39.43;;;13.57;;
71665;SDS011;59503;53.486;10.196;2024-02-21T01:57:39;41.95;;;14.20;;
71665;SDS011;59503;53.486;10.196;2024-02-21T02:00:06;43.35;;;14.05;;
71665;SDS011;59503;53.486;10.196;2024-02-21T02:02:32;48.40;;;15.48;;
71665;SDS011;59503;53.486;10.196;2024-02-21T02:04:58;35.60;;;13.68;;
71665;SDS011;59503;53.486;10.196;2024-02-21T02:07:25;32.83;;;13.10;;
71665;SDS011;59503;53.486;10.196;2024-02-21T02:09:51;41.50;;;14.25;;
71665;SDS011;59503;53.486;10.196;2024-02-21T02:12:17;42.80;;;15.03;;
71665;SDS011;59503;53.486;10.196;2024-02-21T02:14:42;44.05;;;14.48;;
71665;SDS011;59503;53.486;10.196;2024-02-21T02:17:08;46.30;;;14.07;;
71665;SDS011;59503;53.486;10.196;2024-02-21T02:19:34;42.03;;;14.77;;
71665;SDS011;59503;53.486;10.196;2024-02-21T02:22:01;41.27;;;14.50;;
71665;SDS011;59503;53.486;10.196;2024-02-21T02:24:44;47.83;;;15.40;;
71665;SDS011;59503;53.486;10.196;2024-02-21T02:27:10;44.00;;;14.77;;
71665;SDS011;59503;53.486;10.196;2024-02-21T02:29:35;55.17;;;15.75;;
71665;SDS011;59503;53.486;10.196;2024-02-21T02:32:01;54.33;;;15.43;;
71665;SDS011;59503;53.486;10.196;2024-02-21T02:34:27;47.17;;;15.07;;
71665;SDS011;59503;53.486;10.196;2024-02-21T02:36:52;58.38;;;16.75;;
71665;SDS011;59503;53.486;10.196;2024-02-21T02:39:19;52.63;;;16.85;;
71665;SDS011;59503;53.486;10.196;2024-02-21T02:41:46;54.37;;;15.87;;
71665;SDS011;59503;53.486;10.196;2024-02-21T02:44:11;47.83;;;16.13;;
71665;SDS011;59503;53.486;10.196;2024-02-21T02:46:37;53.57;;;17.00;;
71665;SDS011;59503;53.486;10.196;2024-02-21T02:49:05;59.55;;;18.48;;
71665;SDS011;59503;53.486;10.196;2024-02-21T02:51:31;50.83;;;17.47;;
71665;SDS011;59503;53.486;10.196;2024-02-21T02:53:56;58.25;;;17.13;;
71665;SDS011;59503;53.486;10.196;2024-02-21T02:56:22;51.23;;;18.60;;
71665;SDS011;59503;53.486;10.196;2024-02-21T02:58:47;50.07;;;17.77;;
71665;SDS011;59503;53.486;10.196;2024-02-21T03:01:13;45.92;;;17.35;;
71665;SDS011;59503;53.486;10.196;2024-02-21T03:03:38;57.13;;;16.93;;
71665;SDS011;59503;53.486;10.196;2024-02-21T03:06:04;52.40;;;16.17;;
71665;SDS011;59503;53.486;10.196;2024-02-21T03:08:30;53.75;;;18.00;;
71665;SDS011;59503;53.486;10.196;2024-02-21T03:10:55;50.70;;;17.50;;
71665;SDS011;59503;53.486;10.196;2024-02-21T03:13:21;54.67;;;18.50;;
71665;SDS011;59503;53.486;10.196;2024-02-21T03:15:46;59.35;;;18.23;;
71665;SDS011;59503;53.486;10.196;2024-02-21T03:18:12;52.23;;;17.40;;
71665;SDS011;59503;53.486;10.196;2024-02-21T03:20:38;51.33;;;17.48;;
71665;SDS011;59503;53.486;10.196;2024-02-21T03:23:03;48.77;;;15.57;;
71665;SDS011;59503;53.486;10.196;2024-02-21T03:25:29;51.10;;;17.95;;
71665;SDS011;59503;53.486;10.196;2024-02-21T03:27:54;54.00;;;17.07;;
71665;SDS011;59503;53.486;10.196;2024-02-21T03:30:20;58.03;;;17.37;;
71665;SDS011;59503;53.486;10.196;2024-02-21T03:32:45;48.92;;;15.90;;
71665;SDS011;59503;53.486;10.196;2024-02-21T03:35:11;50.53;;;16.50;;
71665;SDS011;59503;53.486;10.196;2024-02-21T03:37:36;55.20;;;16.93;;
71665;SDS011;59503;53.486;10.196;2024-02-21T03:40:02;47.63;;;15.53;;
71665;SDS011;59503;53.486;10.196;2024-02-21T03:42:28;48.20;;;17.10;;
71665;SDS011;59503;53.486;10.196;2024-02-21T03:44:55;52.63;;;17.38;;
71665;SDS011;59503;53.486;10.196;2024-02-21T03:47:21;48.35;;;16.08;;
71665;SDS011;59503;53.486;10.196;2024-02-21T03:49:46;38.90;;;14.80;;
71665;SDS011;59503;53.486;10.196;2024-02-21T03:52:11;48.77;;;16.10;;
71665;SDS011;59503;53.486;10.196;2024-02-21T03:54:37;43.95;;;15.07;;
71665;SDS011;59503;53.486;10.196;2024-02-21T03:57:02;46.87;;;14.77;;
71665;SDS011;59503;53.486;10.196;2024-02-21T03:59:30;44.50;;;14.57;;
71665;SDS011;59503;53.486;10.196;2024-02-21T04:01:55;47.30;;;15.13;;
71665;SDS011;59503;53.486;10.196;2024-02-21T04:04:21;47.47;;;15.33;;
71665;SDS011;59503;53.486;10.196;2024-02-21T04:06:47;47.38;;;15.20;;
71665;SDS011;59503;53.486;10.196;2024-02-21T04:09:15;46.42;;;14.45;;
71665;SDS011;59503;53.486;10.196;2024-02-21T04:11:41;40.77;;;14.80;;
71665;SDS011;59503;53.486;10.196;2024-02-21T04:14:07;39.53;;;14.77;;
71665;SDS011;59503;53.486;10.196;2024-02-21T04:16:33;51.70;;;15.18;;
71665;SDS011;59503;53.486;10.196;2024-02-21T04:18:59;47.13;;;15.27;;
71665;SDS011;59503;53.486;10.196;2024-02-21T04:21:24;43.60;;;15.23;;
71665;SDS011;59503;53.486;10.196;2024-02-21T04:23:50;47.87;;;15.90;;
71665;SDS011;59503;53.486;10.196;2024-02-21T04:26:16;44.97;;;16.13;;
71665;SDS011;59503;53.486;10.196;2024-02-21T04:28:41;48.80;;;16.30;;
71665;SDS011;59503;53.486;10.196;2024-02-21T04:31:07;50.28;;;16.80;;
71665;SDS011;59503;53.486;10.196;2024-02-21T04:33:32;54.90;;;16.90;;
71665;SDS011;59503;53.486;10.196;2024-02-21T04:35:58;49.97;;;16.10;;
71665;SDS011;59503;53.486;10.196;2024-02-21T04:38:24;52.30;;;17.50;;
71665;SDS011;59503;53.486;10.196;2024-02-21T04:40:50;47.35;;;16.15;;
71665;SDS011;59503;53.486;10.196;2024-02-21T04:43:15;49.77;;;15.53;;
71665;SDS011;59503;53.486;10.196;2024-02-21T04:45:42;45.37;;;15.47;;
71665;SDS011;59503;53.486;10.196;2024-02-21T04:48:07;50.33;;;16.25;;
71665;SDS011;59503;53.486;10.196;2024-02-21T04:50:33;43.67;;;16.30;;
71665;SDS011;59503;53.486;10.196;2024-02-21T04:52:58;44.25;;;16.25;;
71665;SDS011;59503;53.486;10.196;2024-02-21T04:55:24;42.57;;;16.13;;
71665;SDS011;59503;53.486;10.196;2024-02-21T04:57:49;49.43;;;14.80;;
71665;SDS011;59503;53.486;10.196;2024-02-21T05:00:15;47.95;;;16.30;;
71665;SDS011;59503;53.486;10.196;2024-02-21T05:02:40;46.50;;;15.77;;
71665;SDS011;59503;53.486;10.196;2024-02-21T05:05:06;47.28;;;16.13;;
71665;SDS011;59503;53.486;10.196;2024-02-21T05:07:32;53.90;;;15.43;;
71665;SDS011;59503;53.486;10.196;2024-02-21T05:09:57;49.83;;;16.23;;
71665;SDS011;59503;53.486;10.196;2024-02-21T05:12:23;43.90;;;14.37;;
71665;SDS011;59503;53.486;10.196;2024-02-21T05:14:48;48.73;;;15.10;;
71665;SDS011;59503;53.486;10.196;2024-02-21T05:17:14;38.55;;;14.00;;
71665;SDS011;59503;53.486;10.196;2024-02-21T05:19:40;52.33;;;15.20;;
71665;SDS011;59503;53.486;10.196;2024-02-21T05:22:06;49.20;;;15.07;;
71665;SDS011;59503;53.486;10.196;2024-02-21T05:24:31;45.43;;;14.50;;
71665;SDS011;59503;53.486;10.196;2024-02-21T05:26:57;43.83;;;14.67;;
71665;SDS011;59503;53.486;10.196;2024-02-21T05:29:23;41.00;;;14.20;;
71665;SDS011;59503;53.486;10.196;2024-02-21T05:34:20;44.38;;;13.48;;
71665;SDS011;59503;53.486;10.196;2024-02-21T05:36:45;47.15;;;15.05;;
71665;SDS011;59503;53.486;10.196;2024-02-21T05:39:12;45.65;;;15.30;;
71665;SDS011;59503;53.486;10.196;2024-02-21T05:41:38;42.35;;;13.82;;
71665;SDS011;59503;53.486;10.196;2024-02-21T05:44:03;44.13;;;13.43;;
71665;SDS011;59503;53.486;10.196;2024-02-21T05:46:29;43.27;;;13.83;;
71665;SDS011;59503;53.486;10.196;2024-02-21T05:48:54;35.80;;;13.52;;
71665;SDS011;59503;53.486;10.196;2024-02-21T05:51:20;42.77;;;13.87;;
71665;SDS011;59503;53.486;10.196;2024-02-21T05:53:45;39.80;;;12.83;;
71665;SDS011;59503;53.486;10.196;2024-02-21T05:56:11;36.40;;;12.50;;
71665;SDS011;59503;53.486;10.196;2024-02-21T05:58:37;33.40;;;11.68;;
71665;SDS011;59503;53.486;10.196;2024-02-21T06:01:03;33.60;;;11.27;;
71665;SDS011;59503;53.486;10.196;2024-02-21T06:03:30;35.53;;;11.50;;
71665;SDS011;59503;53.486;10.196;2024-02-21T06:05:55;33.43;;;11.47;;
71665;SDS011;59503;53.486;10.196;2024-02-21T06:08:21;30.63;;;10.80;;
71665;SDS011;59503;53.486;10.196;2024-02-21T06:10:47;26.17;;;10.27;;
71665;SDS011;59503;53.486;10.196;2024-02-21T06:13:13;35.25;;;10.95;;
71665;SDS011;59503;53.486;10.196;2024-02-21T06:15:39;29.02;;;10.88;;
71665;SDS011;59503;53.486;10.196;2024-02-21T06:18:04;34.87;;;10.17;;
71665;SDS011;59503;53.486;10.196;2024-02-21T06:20:30;27.97;;;9.37;;
71665;SDS011;59503;53.486;10.196;2024-02-21T06:22:56;30.67;;;9.82;;
71665;SDS011;59503;53.486;10.196;2024-02-21T06:25:22;24.70;;;9.05;;
71665;SDS011;59503;53.486;10.196;2024-02-21T06:27:48;23.80;;;9.53;;
71665;SDS011;59503;53.486;10.196;2024-02-21T06:30:14;25.13;;;8.25;;
71665;SDS011;59503;53.486;10.196;2024-02-21T06:32:39;20.27;;;8.40;;
71665;SDS011;59503;53.486;10.196;2024-02-21T06:35:05;24.93;;;9.27;;
71665;SDS011;59503;53.486;10.196;2024-02-21T06:37:30;21.77;;;8.38;;
71665;SDS011;59503;53.486;10.196;2024-02-21T06:39:57;21.63;;;7.95;;
71665;SDS011;59503;53.486;10.196;2024-02-21T06:42:24;22.77;;;9.03;;
71665;SDS011;59503;53.486;10.196;2024-02-21T06:44:50;24.20;;;7.85;;
71665;SDS011;59503;53.486;10.196;2024-02-21T06:47:15;21.47;;;8.17;;
71665;SDS011;59503;53.486;10.196;2024-02-21T06:49:40;24.20;;;8.75;;
71665;SDS011;59503;53.486;10.196;2024-02-21T06:52:07;25.30;;;7.93;;
71665;SDS011;59503;53.486;10.196;2024-02-21T06:54:32;19.03;;;7.07;;
71665;SDS011;59503;53.486;10.196;2024-02-21T06:56:58;24.83;;;8.33;;
71665;SDS011;59503;53.486;10.196;2024-02-21T06:59:23;17.75;;;7.25;;
71665;SDS011;59503;53.486;10.196;2024-02-21T07:01:49;20.73;;;7.17;;
71665;SDS011;59503;53.486;10.196;2024-02-21T07:04:17;21.15;;;6.72;;
71665;SDS011;59503;53.486;10.196;2024-02-21T07:06:42;23.23;;;6.60;;
71665;SDS011;59503;53.486;10.196;2024-02-21T07:09:07;16.27;;;6.77;;
71665;SDS011;59503;53.486;10.196;2024-02-21T07:11:33;14.70;;;6.23;;
71665;SDS011;59503;53.486;10.196;2024-02-21T07:13:58;21.63;;;7.43;;
71665;SDS011;59503;53.486;10.196;2024-02-21T07:16:24;21.88;;;7.40;;
71665;SDS011;59503;53.486;10.196;2024-02-21T07:18:50;19.90;;;7.53;;
71665;SDS011;59503;53.486;10.196;2024-02-21T07:21:15;19.83;;;7.18;;
71665;SDS011;59503;53.486;10.196;2024-02-21T07:23:41;20.70;;;7.83;;
71665;SDS011;59503;53.486;10.196;2024-02-21T07:26:09;17.35;;;7.07;;
71665;SDS011;59503;53.486;10.196;2024-02-21T07:28:35;16.77;;;6.72;;
71665;SDS011;59503;53.486;10.196;2024-02-21T07:31:00;16.37;;;7.10;;
71665;SDS011;59503;53.486;10.196;2024-02-21T07:33:26;20.17;;;7.33;;
71665;SDS011;59503;53.486;10.196;2024-02-21T07:35:51;16.90;;;6.97;;
71665;SDS011;59503;53.486;10.196;2024-02-21T07:38:17;15.52;;;6.55;;
71665;SDS011;59503;53.486;10.196;2024-02-21T07:40:45;18.07;;;7.00;;
71665;SDS011;59503;53.486;10.196;2024-02-21T07:43:11;15.48;;;6.60;;
71665;SDS011;59503;53.486;10.196;2024-02-21T07:45:36;16.73;;;6.63;;
71665;SDS011;59503;53.486;10.196;2024-02-21T07:48:03;13.52;;;6.00;;
71665;SDS011;59503;53.486;10.196;2024-02-21T07:50:29;16.90;;;6.78;;
71665;SDS011;59503;53.486;10.196;2024-02-21T07:52:54;15.17;;;6.10;;
71665;SDS011;59503;53.486;10.196;2024-02-21T07:55:20;15.05;;;5.45;;
71665;SDS011;59503;53.486;10.196;2024-02-21T07:57:45;13.83;;;6.00;;
71665;SDS011;59503;53.486;10.196;2024-02-21T08:00:11;12.77;;;5.67;;
71665;SDS011;59503;53.486;10.196;2024-02-21T08:02:44;14.02;;;5.60;;
71665;SDS011;59503;53.486;10.196;2024-02-21T08:05:13;13.15;;;5.78;;
71665;SDS011;59503;53.486;10.196;2024-02-21T08:07:38;11.33;;;5.50;;
71665;SDS011;59503;53.486;10.196;2024-02-21T08:10:04;12.75;;;5.35;;
71665;SDS011;59503;53.486;10.196;2024-02-21T08:12:33;11.70;;;5.18;;
71665;SDS011;59503;53.486;10.196;2024-02-21T08:14:58;11.83;;;5.10;;
71665;SDS011;59503;53.486;10.196;2024-02-21T08:17:24;10.77;;;4.67;;
71665;SDS011;59503;53.486;10.196;2024-02-21T08:19:49;11.52;;;4.38;;
71665;SDS011;59503;53.486;10.196;2024-02-21T08:22:15;12.50;;;4.60;;
71665;SDS011;59503;53.486;10.196;2024-02-21T08:24:41;11.73;;;4.80;;
71665;SDS011;59503;53.486;10.196;2024-02-21T08:27:07;11.37;;;4.33;;
71665;SDS011;59503;53.486;10.196;2024-02-21T08:29:32;10.07;;;4.18;;
71665;SDS011;59503;53.486;10.196;2024-02-21T08:31:58;8.03;;;3.90;;
71665;SDS011;59503;53.486;10.196;2024-02-21T08:34:23;12.07;;;4.83;;
71665;SDS011;59503;53.486;10.196;2024-02-21T08:36:49;8.98;;;3.80;;
71665;SDS011;59503;53.486;10.196;2024-02-21T08:39:15;10.10;;;3.73;;
71665;SDS011;59503;53.486;10.196;2024-02-21T08:41:41;7.97;;;3.70;;
71665;SDS011;59503;53.486;10.196;2024-02-21T08:44:08;10.35;;;4.10;;
71665;SDS011;59503;53.486;10.196;2024-02-21T08:46:34;9.13;;;3.60;;
71665;SDS011;59503;53.486;10.196;2024-02-21T08:48:59;7.80;;;3.10;;
71665;SDS011;59503;53.486;10.196;2024-02-21T08:51:25;7.53;;;3.37;;
71665;SDS011;59503;53.486;10.196;2024-02-21T08:53:51;9.40;;;4.70;;
71665;SDS011;59503;53.486;10.196;2024-02-21T08:56:18;9.50;;;4.20;;
71665;SDS011;59503;53.486;10.196;2024-02-21T08:58:44;11.67;;;3.90;;
71665;SDS011;59503;53.486;10.196;2024-02-21T09:01:09;9.88;;;3.88;;
71665;SDS011;59503;53.486;10.196;2024-02-21T09:03:37;9.50;;;3.77;;
71665;SDS011;59503;53.486;10.196;2024-02-21T09:06:04;9.15;;;3.67;;
71665;SDS011;59503;53.486;10.196;2024-02-21T09:08:31;7.88;;;3.30;;
71665;SDS011;59503;53.486;10.196;2024-02-21T09:10:57;7.45;;;2.80;;
71665;SDS011;59503;53.486;10.196;2024-02-21T09:13:22;9.77;;;3.03;;
71665;SDS011;59503;53.486;10.196;2024-02-21T09:15:49;10.32;;;2.97;;
71665;SDS011;59503;53.486;10.196;2024-02-21T09:18:14;7.10;;;2.33;;
71665;SDS011;59503;53.486;10.196;2024-02-21T09:20:41;9.20;;;2.45;;
71665;SDS011;59503;53.486;10.196;2024-02-21T09:23:06;8.53;;;2.13;;
71665;SDS011;59503;53.486;10.196;2024-02-21T09:25:32;15.15;;;2.28;;
71665;SDS011;59503;53.486;10.196;2024-02-21T09:27:57;10.73;;;2.90;;
71665;SDS011;59503;53.486;10.196;2024-02-21T09:30:23;6.73;;;2.23;;
71665;SDS011;59503;53.486;10.196;2024-02-21T09:32:49;10.00;;;2.67;;
71665;SDS011;59503;53.486;10.196;2024-02-21T09:35:15;11.50;;;2.70;;
71665;SDS011;59503;53.486;10.196;2024-02-21T09:37:40;8.93;;;2.53;;
71665;SDS011;59503;53.486;10.196;2024-02-21T09:40:06;11.90;;;2.45;;
71665;SDS011;59503;53.486;10.196;2024-02-21T09:42:36;11.30;;;2.27;;
71665;SDS011;59503;53.486;10.196;2024-02-21T09:45:19;9.15;;;1.90;;
71665;SDS011;59503;53.486;10.196;2024-02-21T09:50:18;13.13;;;2.20;;
71665;SDS011;59503;53.486;10.196;2024-02-21T09:52:46;11.23;;;2.50;;
71665;SDS011;59503;53.486;10.196;2024-02-21T09:55:13;12.93;;;3.10;;
71665;SDS011;59503;53.486;10.196;2024-02-21T09:57:40;12.20;;;2.92;;
71665;SDS011;59503;53.486;10.196;2024-02-21T10:00:06;12.95;;;3.83;;
71665;SDS011;59503;53.486;10.196;2024-02-21T10:02:33;9.85;;;3.08;;
71665;SDS011;59503;53.486;10.196;2024-02-21T10:04:59;9.30;;;3.40;;
71665;SDS011;59503;53.486;10.196;2024-02-21T10:07:24;10.73;;;3.47;;
71665;SDS011;59503;53.486;10.196;2024-02-21T10:10:00;10.90;;;4.40;;
71665;SDS011;59503;53.486;10.196;2024-02-21T10:12:27;14.87;;;4.53;;
71665;SDS011;59503;53.486;10.196;2024-02-21T10:15:02;13.82;;;5.57;;
71665;SDS011;59503;53.486;10.196;2024-02-21T10:17:29;17.90;;;6.93;;
71665;SDS011;59503;53.486;10.196;2024-02-21T10:19:54;20.77;;;7.60;;
71665;SDS011;59503;53.486;10.196;2024-02-21T10:22:20;23.63;;;8.30;;
71665;SDS011;59503;53.486;10.196;2024-02-21T10:24:46;25.40;;;8.27;;
71665;SDS011;59503;53.486;10.196;2024-02-21T10:27:11;29.52;;;9.10;;
71665;SDS011;59503;53.486;10.196;2024-02-21T10:29:37;26.67;;;8.70;;
71665;SDS011;59503;53.486;10.196;2024-02-21T10:34:30;33.50;;;9.52;;
71665;SDS011;59503;53.486;10.196;2024-02-21T10:37:14;30.93;;;10.57;;
71665;SDS011;59503;53.486;10.196;2024-02-21T10:39:40;26.67;;;10.57;;
71665;SDS011;59503;53.486;10.196;2024-02-21T10:42:06;28.53;;;10.93;;
71665;SDS011;59503;53.486;10.196;2024-02-21T10:44:38;31.92;;;11.30;;
71665;SDS011;59503;53.486;10.196;2024-02-21T10:47:09;30.48;;;11.15;;
71665;SDS011;59503;53.486;10.196;2024-02-21T10:49:39;35.47;;;12.07;;
71665;SDS011;59503;53.486;10.196;2024-02-21T10:55:03;35.90;;;12.00;;
71665;SDS011;59503;53.486;10.196;2024-02-21T10:57:31;37.63;;;12.95;;
71665;SDS011;59503;53.486;10.196;2024-02-21T10:59:58;38.63;;;12.52;;
71665;SDS011;59503;53.486;10.196;2024-02-21T11:02:24;38.58;;;11.52;;
71665;SDS011;59503;53.486;10.196;2024-02-21T11:04:51;37.63;;;12.25;;
71665;SDS011;59503;53.486;10.196;2024-02-21T11:07:19;33.13;;;11.40;;
71665;SDS011;59503;53.486;10.196;2024-02-21T11:09:53;34.90;;;12.00;;
71665;SDS011;59503;53.486;10.196;2024-02-21T11:12:23;35.05;;;11.10;;
71665;SDS011;59503;53.486;10.196;2024-02-21T11:14:50;35.03;;;11.15;;
71665;SDS011;59503;53.486;10.196;2024-02-21T11:17:19;33.03;;;10.70;;
71665;SDS011;59503;53.486;10.196;2024-02-21T11:19:51;26.42;;;10.30;;
71665;SDS011;59503;53.486;10.196;2024-02-21T11:22:17;30.97;;;9.67;;
71665;SDS011;59503;53.486;10.196;2024-02-21T11:24:45;29.23;;;10.32;;
71665;SDS011;59503;53.486;10.196;2024-02-21T11:27:14;28.35;;;9.55;;
71665;SDS011;59503;53.486;10.196;2024-02-21T11:29:53;26.02;;;9.00;;
71665;SDS011;59503;53.486;10.196;2024-02-21T11:32:21;23.97;;;8.63;;
71665;SDS011;59503;53.486;10.196;2024-02-21T11:37:19;33.08;;;8.88;;
71665;SDS011;59503;53.486;10.196;2024-02-21T11:39:44;21.07;;;8.03;;
71665;SDS011;59503;53.486;10.196;2024-02-21T11:42:09;25.43;;;8.37;;
71665;SDS011;59503;53.486;10.196;2024-02-21T11:44:37;22.80;;;8.57;;
71665;SDS011;59503;53.486;10.196;2024-02-21T11:47:06;21.63;;;8.85;;
71665;SDS011;59503;53.486;10.196;2024-02-21T11:49:35;18.35;;;7.55;;
71665;SDS011;59503;53.486;10.196;2024-02-21T11:52:02;21.83;;;8.15;;
71665;SDS011;59503;53.486;10.196;2024-02-21T11:54:32;23.93;;;8.03;;
71665;SDS011;59503;53.486;10.196;2024-02-21T11:56:59;22.48;;;7.28;;
71665;SDS011;59503;53.486;10.196;2024-02-21T11:59:25;23.33;;;8.63;;
71665;SDS011;59503;53.486;10.196;2024-02-21T12:01:50;22.20;;;7.90;;
71665;SDS011;59503;53.486;10.196;2024-02-21T12:04:18;18.80;;;7.82;;
71665;SDS011;59503;53.486;10.196;2024-02-21T12:06:49;23.55;;;8.05;;
71665;SDS011;59503;53.486;10.196;2024-02-21T12:09:17;17.52;;;7.82;;
71665;SDS011;59503;53.486;10.196;2024-02-21T12:11:43;23.40;;;9.05;;
71665;SDS011;59503;53.486;10.196;2024-02-21T12:14:10;19.40;;;7.63;;
71665;SDS011;59503;53.486;10.196;2024-02-21T12:16:36;21.33;;;8.05;;
71665;SDS011;59503;53.486;10.196;2024-02-21T12:19:02;25.38;;;8.40;;
71665;SDS011;59503;53.486;10.196;2024-02-21T12:21:32;20.63;;;7.95;;
71665;SDS011;59503;53.486;10.196;2024-02-21T12:26:40;25.47;;;8.10;;
71665;SDS011;59503;53.486;10.196;2024-02-21T12:29:06;27.50;;;8.90;;
71665;SDS011;59503;53.486;10.196;2024-02-21T12:31:34;22.83;;;8.55;;
71665;SDS011;59503;53.486;10.196;2024-02-21T12:34:00;23.20;;;8.98;;
71665;SDS011;59503;53.486;10.196;2024-02-21T12:36:26;30.80;;;8.80;;
71665;SDS011;59503;53.486;10.196;2024-02-21T12:38:51;31.00;;;10.43;;
71665;SDS011;59503;53.486;10.196;2024-02-21T12:41:17;22.35;;;9.02;;
71665;SDS011;59503;53.486;10.196;2024-02-21T12:43:42;28.93;;;9.03;;
71665;SDS011;59503;53.486;10.196;2024-02-21T12:46:08;25.90;;;9.07;;
71665;SDS011;59503;53.486;10.196;2024-02-21T12:48:33;22.73;;;9.40;;
71665;SDS011;59503;53.486;10.196;2024-02-21T12:50:59;20.35;;;9.30;;
71665;SDS011;59503;53.486;10.196;2024-02-21T12:53:24;30.80;;;10.50;;
71665;SDS011;59503;53.486;10.196;2024-02-21T12:55:50;27.73;;;10.20;;
71665;SDS011;59503;53.486;10.196;2024-02-21T12:58:16;28.30;;;11.00;;
71665;SDS011;59503;53.486;10.196;2024-02-21T13:00:42;26.03;;;10.83;;
71665;SDS011;59503;53.486;10.196;2024-02-21T13:03:08;26.02;;;10.23;;
71665;SDS011;59503;53.486;10.196;2024-02-21T13:05:37;28.25;;;10.98;;
71665;SDS011;59503;53.486;10.196;2024-02-21T13:08:04;30.20;;;12.15;;
71665;SDS011;59503;53.486;10.196;2024-02-21T13:10:34;30.83;;;11.37;;
71665;SDS011;59503;53.486;10.196;2024-02-21T13:12:59;32.20;;;11.88;;
71665;SDS011;59503;53.486;10.196;2024-02-21T13:15:25;30.27;;;11.13;;
71665;SDS011;59503;53.486;10.196;2024-02-21T13:17:52;27.57;;;12.03;;
71665;SDS011;59503;53.486;10.196;2024-02-21T13:20:18;27.83;;;11.88;;
71665;SDS011;59503;53.486;10.196;2024-02-21T13:22:44;32.80;;;11.50;;
71665;SDS011;59503;53.486;10.196;2024-02-21T13:25:09;29.77;;;11.90;;
71665;SDS011;59503;53.486;10.196;2024-02-21T13:27:36;24.40;;;10.70;;
71665;SDS011;59503;53.486;10.196;2024-02-21T13:30:01;21.95;;;10.90;;
71665;SDS011;59503;53.486;10.196;2024-02-21T13:32:31;26.45;;;10.23;;
71665;SDS011;59503;53.486;10.196;2024-02-21T13:34:57;24.23;;;10.55;;
71665;SDS011;59503;53.486;10.196;2024-02-21T13:37:25;26.00;;;10.83;;
71665;SDS011;59503;53.486;10.196;2024-02-21T13:39:52;29.50;;;10.73;;
71665;SDS011;59503;53.486;10.196;2024-02-21T13:42:17;23.10;;;9.25;;
71665;SDS011;59503;53.486;10.196;2024-02-21T13:44:44;19.47;;;9.97;;
71665;SDS011;59503;53.486;10.196;2024-02-21T13:47:10;31.58;;;10.07;;
71665;SDS011;59503;53.486;10.196;2024-02-21T13:49:38;27.08;;;11.05;;
71665;SDS011;59503;53.486;10.196;2024-02-21T13:52:04;25.88;;;10.90;;
71665;SDS011;59503;53.486;10.196;2024-02-21T13:54:29;20.53;;;11.30;;
71665;SDS011;59503;53.486;10.196;2024-02-21T13:56:55;20.20;;;9.37;;
71665;SDS011;59503;53.486;10.196;2024-02-21T13:59:20;22.77;;;9.40;;
71665;SDS011;59503;53.486;10.196;2024-02-21T14:01:46;25.08;;;9.60;;
71665;SDS011;59503;53.486;10.196;2024-02-21T14:04:11;26.73;;;10.20;;
71665;SDS011;59503;53.486;10.196;2024-02-21T14:06:37;19.13;;;9.57;;
71665;SDS011;59503;53.486;10.196;2024-02-21T14:09:08;24.40;;;9.77;;
71665;SDS011;59503;53.486;10.196;2024-02-21T14:11:35;22.30;;;9.90;;
71665;SDS011;59503;53.486;10.196;2024-02-21T14:14:01;21.42;;;9.02;;
71665;SDS011;59503;53.486;10.196;2024-02-21T14:16:26;20.27;;;8.97;;
71665;SDS011;59503;53.486;10.196;2024-02-21T14:18:52;19.47;;;9.10;;
71665;SDS011;59503;53.486;10.196;2024-02-21T14:21:19;23.73;;;9.77;;
71665;SDS011;59503;53.486;10.196;2024-02-21T14:23:44;20.73;;;9.73;;
71665;SDS011;59503;53.486;10.196;2024-02-21T14:26:10;16.30;;;8.20;;